sensor_id;sensor_type;location;lat;lon;timestamp;P1;durP1;ratioP1;P2;durP2;ratioP2
64682;SDS011;51107;47.652;19.016;2022-10-16T00:01:45;5.10;;;2.58;;
64682;SDS011;51107;47.652;19.016;2022-10-16T00:04:14;3.05;;;2.20;;
64682;SDS011;51107;47.652;19.016;2022-10-16T00:06:42;2.97;;;2.05;;
64682;SDS011;51107;47.652;19.016;2022-10-16T00:09:10;2.67;;;1.92;;
64682;SDS011;51107;47.652;19.016;2022-10-16T00:11:39;4.20;;;2.58;;
64682;SDS011;51107;47.652;19.016;2022-10-16T00:14:09;3.40;;;2.10;;
64682;SDS011;51107;47.652;19.016;2022-10-16T00:16:40;2.90;;;2.22;;
64682;SDS011;51107;47.652;19.016;2022-10-16T00:19:10;3.53;;;2.40;;
64682;SDS011;51107;47.652;19.016;2022-10-16T00:21:40;3.65;;;2.17;;
64682;SDS011;51107;47.652;19.016;2022-10-16T00:24:08;5.35;;;2.12;;
64682;SDS011;51107;47.652;19.016;2022-10-16T00:26:38;3.47;;;1.92;;
64682;SDS011;51107;47.652;19.016;2022-10-16T00:29:07;5.30;;;2.15;;
64682;SDS011;51107;47.652;19.016;2022-10-16T00:31:36;4.22;;;2.22;;
64682;SDS011;51107;47.652;19.016;2022-10-16T00:34:04;3.45;;;1.90;;
64682;SDS011;51107;47.652;19.016;2022-10-16T00:36:32;3.83;;;1.92;;
64682;SDS011;51107;47.652;19.016;2022-10-16T00:39:00;2.90;;;2.20;;
64682;SDS011;51107;47.652;19.016;2022-10-16T00:41:30;4.07;;;2.22;;
64682;SDS011;51107;47.652;19.016;2022-10-16T00:44:00;3.80;;;2.00;;
64682;SDS011;51107;47.652;19.016;2022-10-16T00:46:33;4.10;;;2.45;;
64682;SDS011;51107;47.652;19.016;2022-10-16T00:49:12;3.37;;;1.65;;
64682;SDS011;51107;47.652;19.016;2022-10-16T00:51:47;3.05;;;1.92;;
64682;SDS011;51107;47.652;19.016;2022-10-16T00:54:22;3.12;;;2.28;;
64682;SDS011;51107;47.652;19.016;2022-10-16T00:56:54;2.40;;;1.80;;
64682;SDS011;51107;47.652;19.016;2022-10-16T00:59:25;3.50;;;2.10;;
64682;SDS011;51107;47.652;19.016;2022-10-16T01:01:56;2.90;;;2.10;;
64682;SDS011;51107;47.652;19.016;2022-10-16T01:04:25;3.80;;;2.30;;
64682;SDS011;51107;47.652;19.016;2022-10-16T01:09:56;3.05;;;2.40;;
64682;SDS011;51107;47.652;19.016;2022-10-16T01:12:39;6.10;;;2.53;;
64682;SDS011;51107;47.652;19.016;2022-10-16T01:20:48;2.83;;;2.12;;
64682;SDS011;51107;47.652;19.016;2022-10-16T01:28:41;5.80;;;2.40;;
64682;SDS011;51107;47.652;19.016;2022-10-16T01:31:24;4.28;;;2.45;;
64682;SDS011;51107;47.652;19.016;2022-10-16T01:40:13;3.12;;;2.17;;
64682;SDS011;51107;47.652;19.016;2022-10-16T01:42:46;3.45;;;2.28;;
64682;SDS011;51107;47.652;19.016;2022-10-16T01:45:18;5.90;;;2.10;;
64682;SDS011;51107;47.652;19.016;2022-10-16T01:47:48;3.35;;;2.35;;
64682;SDS011;51107;47.652;19.016;2022-10-16T01:50:18;3.05;;;1.98;;
64682;SDS011;51107;47.652;19.016;2022-10-16T01:52:49;3.75;;;2.22;;
64682;SDS011;51107;47.652;19.016;2022-10-16T01:55:22;3.08;;;2.12;;
64682;SDS011;51107;47.652;19.016;2022-10-16T01:57:57;4.10;;;2.35;;
64682;SDS011;51107;47.652;19.016;2022-10-16T02:00:28;3.80;;;2.00;;
64682;SDS011;51107;47.652;19.016;2022-10-16T02:02:58;2.95;;;1.95;;
64682;SDS011;51107;47.652;19.016;2022-10-16T02:05:32;2.55;;;2.12;;
64682;SDS011;51107;47.652;19.016;2022-10-16T02:10:34;3.15;;;1.98;;
64682;SDS011;51107;47.652;19.016;2022-10-16T02:13:10;3.33;;;1.95;;
64682;SDS011;51107;47.652;19.016;2022-10-16T02:16:06;2.62;;;1.98;;
64682;SDS011;51107;47.652;19.016;2022-10-16T02:18:34;3.72;;;2.70;;
64682;SDS011;51107;47.652;19.016;2022-10-16T02:21:13;5.15;;;2.58;;
64682;SDS011;51107;47.652;19.016;2022-10-16T02:23:54;2.87;;;1.92;;
64682;SDS011;51107;47.652;19.016;2022-10-16T02:26:35;4.40;;;2.62;;
64682;SDS011;51107;47.652;19.016;2022-10-16T02:29:10;4.82;;;2.75;;
64682;SDS011;51107;47.652;19.016;2022-10-16T02:31:41;8.18;;;2.33;;
64682;SDS011;51107;47.652;19.016;2022-10-16T02:34:15;3.78;;;1.50;;
64682;SDS011;51107;47.652;19.016;2022-10-16T02:36:46;4.72;;;2.30;;
64682;SDS011;51107;47.652;19.016;2022-10-16T02:39:17;3.70;;;2.37;;
64682;SDS011;51107;47.652;19.016;2022-10-16T02:41:47;2.97;;;2.03;;
64682;SDS011;51107;47.652;19.016;2022-10-16T02:44:15;3.70;;;1.92;;
64682;SDS011;51107;47.652;19.016;2022-10-16T02:46:44;6.55;;;2.30;;
64682;SDS011;51107;47.652;19.016;2022-10-16T02:49:12;3.62;;;2.47;;
64682;SDS011;51107;47.652;19.016;2022-10-16T02:51:40;3.17;;;1.95;;
64682;SDS011;51107;47.652;19.016;2022-10-16T02:54:08;3.05;;;1.87;;
64682;SDS011;51107;47.652;19.016;2022-10-16T02:56:36;3.47;;;2.12;;
64682;SDS011;51107;47.652;19.016;2022-10-16T02:59:05;6.55;;;2.30;;
64682;SDS011;51107;47.652;19.016;2022-10-16T03:01:33;4.22;;;2.03;;
64682;SDS011;51107;47.652;19.016;2022-10-16T03:04:03;4.55;;;2.20;;
64682;SDS011;51107;47.652;19.016;2022-10-16T03:06:31;2.33;;;1.92;;
64682;SDS011;51107;47.652;19.016;2022-10-16T03:08:59;3.33;;;2.55;;
64682;SDS011;51107;47.652;19.016;2022-10-16T03:11:28;3.40;;;2.03;;
64682;SDS011;51107;47.652;19.016;2022-10-16T03:13:56;2.20;;;1.85;;
64682;SDS011;51107;47.652;19.016;2022-10-16T03:16:24;2.80;;;1.65;;
64682;SDS011;51107;47.652;19.016;2022-10-16T03:18:52;2.53;;;1.58;;
64682;SDS011;51107;47.652;19.016;2022-10-16T03:21:20;3.92;;;2.33;;
64682;SDS011;51107;47.652;19.016;2022-10-16T03:23:49;3.87;;;2.15;;
64682;SDS011;51107;47.652;19.016;2022-10-16T03:26:17;5.22;;;2.58;;
64682;SDS011;51107;47.652;19.016;2022-10-16T03:28:45;1.62;;;1.50;;
64682;SDS011;51107;47.652;19.016;2022-10-16T03:31:14;3.50;;;2.25;;
64682;SDS011;51107;47.652;19.016;2022-10-16T03:33:42;5.18;;;2.08;;
64682;SDS011;51107;47.652;19.016;2022-10-16T03:36:10;2.92;;;2.00;;
64682;SDS011;51107;47.652;19.016;2022-10-16T03:38:38;4.43;;;2.08;;
64682;SDS011;51107;47.652;19.016;2022-10-16T03:41:07;2.25;;;1.87;;
64682;SDS011;51107;47.652;19.016;2022-10-16T03:43:35;1.92;;;1.52;;
64682;SDS011;51107;47.652;19.016;2022-10-16T03:46:04;3.30;;;2.03;;
64682;SDS011;51107;47.652;19.016;2022-10-16T03:48:32;2.90;;;1.92;;
64682;SDS011;51107;47.652;19.016;2022-10-16T03:51:00;4.15;;;1.77;;
64682;SDS011;51107;47.652;19.016;2022-10-16T03:53:29;2.75;;;1.77;;
64682;SDS011;51107;47.652;19.016;2022-10-16T03:55:57;2.72;;;1.62;;
64682;SDS011;51107;47.652;19.016;2022-10-16T03:58:26;3.53;;;2.00;;
64682;SDS011;51107;47.652;19.016;2022-10-16T04:00:55;5.93;;;2.05;;
64682;SDS011;51107;47.652;19.016;2022-10-16T04:03:25;2.08;;;1.48;;
64682;SDS011;51107;47.652;19.016;2022-10-16T04:05:54;2.90;;;1.40;;
64682;SDS011;51107;47.652;19.016;2022-10-16T04:08:22;3.05;;;2.00;;
64682;SDS011;51107;47.652;19.016;2022-10-16T04:10:50;3.35;;;2.30;;
64682;SDS011;51107;47.652;19.016;2022-10-16T04:13:18;4.72;;;2.60;;
64682;SDS011;51107;47.652;19.016;2022-10-16T04:15:52;3.92;;;2.42;;
64682;SDS011;51107;47.652;19.016;2022-10-16T04:18:20;3.55;;;2.33;;
64682;SDS011;51107;47.652;19.016;2022-10-16T04:20:49;4.32;;;2.55;;
64682;SDS011;51107;47.652;19.016;2022-10-16T04:23:17;4.75;;;2.40;;
64682;SDS011;51107;47.652;19.016;2022-10-16T04:25:45;2.75;;;2.08;;
64682;SDS011;51107;47.652;19.016;2022-10-16T04:28:14;3.80;;;1.77;;
64682;SDS011;51107;47.652;19.016;2022-10-16T04:30:42;2.67;;;2.03;;
64682;SDS011;51107;47.652;19.016;2022-10-16T04:33:10;3.45;;;2.30;;
64682;SDS011;51107;47.652;19.016;2022-10-16T04:35:40;2.55;;;1.98;;
64682;SDS011;51107;47.652;19.016;2022-10-16T04:38:08;2.90;;;1.95;;
64682;SDS011;51107;47.652;19.016;2022-10-16T04:40:36;4.28;;;1.87;;
64682;SDS011;51107;47.652;19.016;2022-10-16T04:43:05;4.00;;;2.17;;
64682;SDS011;51107;47.652;19.016;2022-10-16T04:45:33;3.17;;;2.10;;
64682;SDS011;51107;47.652;19.016;2022-10-16T04:48:02;2.75;;;1.70;;
64682;SDS011;51107;47.652;19.016;2022-10-16T04:50:30;3.47;;;2.25;;
64682;SDS011;51107;47.652;19.016;2022-10-16T04:53:01;4.07;;;2.40;;
64682;SDS011;51107;47.652;19.016;2022-10-16T04:55:29;3.25;;;1.92;;
64682;SDS011;51107;47.652;19.016;2022-10-16T04:57:57;2.70;;;1.75;;
64682;SDS011;51107;47.652;19.016;2022-10-16T05:00:25;3.33;;;1.85;;
64682;SDS011;51107;47.652;19.016;2022-10-16T05:02:54;1.98;;;1.62;;
64682;SDS011;51107;47.652;19.016;2022-10-16T05:05:22;2.55;;;1.67;;
64682;SDS011;51107;47.652;19.016;2022-10-16T05:07:51;4.45;;;1.92;;
64682;SDS011;51107;47.652;19.016;2022-10-16T05:10:19;3.60;;;1.83;;
64682;SDS011;51107;47.652;19.016;2022-10-16T05:12:47;3.95;;;2.35;;
64682;SDS011;51107;47.652;19.016;2022-10-16T05:15:16;2.47;;;1.58;;
64682;SDS011;51107;47.652;19.016;2022-10-16T05:17:44;3.60;;;1.65;;
64682;SDS011;51107;47.652;19.016;2022-10-16T05:20:12;3.42;;;2.37;;
64682;SDS011;51107;47.652;19.016;2022-10-16T05:22:40;3.20;;;2.00;;
64682;SDS011;51107;47.652;19.016;2022-10-16T05:25:09;4.55;;;2.53;;
64682;SDS011;51107;47.652;19.016;2022-10-16T05:27:37;5.00;;;2.97;;
64682;SDS011;51107;47.652;19.016;2022-10-16T05:30:05;2.75;;;2.25;;
64682;SDS011;51107;47.652;19.016;2022-10-16T05:32:47;2.85;;;1.83;;
64682;SDS011;51107;47.652;19.016;2022-10-16T05:35:16;3.62;;;1.92;;
64682;SDS011;51107;47.652;19.016;2022-10-16T05:37:48;1.80;;;1.40;;
64682;SDS011;51107;47.652;19.016;2022-10-16T05:40:17;2.95;;;1.95;;
64682;SDS011;51107;47.652;19.016;2022-10-16T05:42:45;3.30;;;1.98;;
64682;SDS011;51107;47.652;19.016;2022-10-16T05:45:13;10.10;;;4.18;;
64682;SDS011;51107;47.652;19.016;2022-10-16T05:47:42;7.12;;;4.47;;
64682;SDS011;51107;47.652;19.016;2022-10-16T05:50:10;5.32;;;2.60;;
64682;SDS011;51107;47.652;19.016;2022-10-16T05:52:41;4.40;;;2.80;;
64682;SDS011;51107;47.652;19.016;2022-10-16T05:55:09;4.40;;;2.78;;
64682;SDS011;51107;47.652;19.016;2022-10-16T05:57:37;3.70;;;2.95;;
64682;SDS011;51107;47.652;19.016;2022-10-16T06:00:06;4.85;;;2.47;;
64682;SDS011;51107;47.652;19.016;2022-10-16T06:02:39;4.70;;;2.87;;
64682;SDS011;51107;47.652;19.016;2022-10-16T06:05:07;4.95;;;2.90;;
64682;SDS011;51107;47.652;19.016;2022-10-16T06:07:35;4.00;;;2.70;;
64682;SDS011;51107;47.652;19.016;2022-10-16T06:10:04;5.55;;;3.10;;
64682;SDS011;51107;47.652;19.016;2022-10-16T06:12:33;6.43;;;4.20;;
64682;SDS011;51107;47.652;19.016;2022-10-16T06:15:01;5.90;;;3.00;;
64682;SDS011;51107;47.652;19.016;2022-10-16T06:17:29;5.72;;;2.87;;
64682;SDS011;51107;47.652;19.016;2022-10-16T06:19:58;4.28;;;2.78;;
64682;SDS011;51107;47.652;19.016;2022-10-16T06:22:26;5.28;;;3.45;;
64682;SDS011;51107;47.652;19.016;2022-10-16T06:24:54;5.82;;;2.90;;
64682;SDS011;51107;47.652;19.016;2022-10-16T06:27:24;6.78;;;2.92;;
64682;SDS011;51107;47.652;19.016;2022-10-16T06:29:54;7.82;;;3.65;;
64682;SDS011;51107;47.652;19.016;2022-10-16T06:32:22;5.35;;;3.00;;
64682;SDS011;51107;47.652;19.016;2022-10-16T06:34:50;7.75;;;3.05;;
64682;SDS011;51107;47.652;19.016;2022-10-16T06:37:19;7.60;;;2.65;;
64682;SDS011;51107;47.652;19.016;2022-10-16T06:39:47;5.12;;;2.85;;
64682;SDS011;51107;47.652;19.016;2022-10-16T06:42:15;3.28;;;1.62;;
64682;SDS011;51107;47.652;19.016;2022-10-16T06:44:43;3.62;;;2.55;;
64682;SDS011;51107;47.652;19.016;2022-10-16T06:47:12;4.18;;;2.60;;
64682;SDS011;51107;47.652;19.016;2022-10-16T06:49:40;2.03;;;1.75;;
64682;SDS011;51107;47.652;19.016;2022-10-16T06:52:08;6.47;;;2.42;;
64682;SDS011;51107;47.652;19.016;2022-10-16T06:54:36;4.05;;;2.55;;
64682;SDS011;51107;47.652;19.016;2022-10-16T06:57:09;4.12;;;2.10;;
64682;SDS011;51107;47.652;19.016;2022-10-16T06:59:37;2.70;;;2.05;;
64682;SDS011;51107;47.652;19.016;2022-10-16T07:02:06;4.57;;;2.65;;
64682;SDS011;51107;47.652;19.016;2022-10-16T07:04:35;2.92;;;1.85;;
64682;SDS011;51107;47.652;19.016;2022-10-16T07:07:03;4.03;;;2.10;;
64682;SDS011;51107;47.652;19.016;2022-10-16T07:09:36;4.20;;;2.22;;
64682;SDS011;51107;47.652;19.016;2022-10-16T07:12:04;4.18;;;2.17;;
64682;SDS011;51107;47.652;19.016;2022-10-16T07:14:32;2.05;;;1.73;;
64682;SDS011;51107;47.652;19.016;2022-10-16T07:17:01;3.65;;;2.10;;
64682;SDS011;51107;47.652;19.016;2022-10-16T07:19:29;6.70;;;2.12;;
64682;SDS011;51107;47.652;19.016;2022-10-16T07:22:01;3.08;;;2.10;;
64682;SDS011;51107;47.652;19.016;2022-10-16T07:24:30;2.72;;;2.00;;
64682;SDS011;51107;47.652;19.016;2022-10-16T07:26:58;3.33;;;1.73;;
64682;SDS011;51107;47.652;19.016;2022-10-16T07:29:27;7.70;;;2.33;;
64682;SDS011;51107;47.652;19.016;2022-10-16T07:31:56;4.15;;;1.83;;
64682;SDS011;51107;47.652;19.016;2022-10-16T07:34:24;2.92;;;2.03;;
64682;SDS011;51107;47.652;19.016;2022-10-16T07:36:53;3.72;;;2.17;;
64682;SDS011;51107;47.652;19.016;2022-10-16T07:39:21;2.78;;;1.98;;
64682;SDS011;51107;47.652;19.016;2022-10-16T07:41:50;8.65;;;2.47;;
64682;SDS011;51107;47.652;19.016;2022-10-16T07:44:18;2.37;;;1.80;;
64682;SDS011;51107;47.652;19.016;2022-10-16T07:46:46;2.22;;;1.95;;
64682;SDS011;51107;47.652;19.016;2022-10-16T07:49:14;3.40;;;2.25;;
64682;SDS011;51107;47.652;19.016;2022-10-16T07:51:43;2.85;;;2.00;;
64682;SDS011;51107;47.652;19.016;2022-10-16T07:54:11;5.07;;;2.35;;
64682;SDS011;51107;47.652;19.016;2022-10-16T07:56:39;3.65;;;2.45;;
64682;SDS011;51107;47.652;19.016;2022-10-16T07:59:10;4.45;;;2.28;;
64682;SDS011;51107;47.652;19.016;2022-10-16T08:01:39;2.78;;;1.90;;
64682;SDS011;51107;47.652;19.016;2022-10-16T08:04:08;6.47;;;1.90;;
64682;SDS011;51107;47.652;19.016;2022-10-16T08:06:37;3.30;;;1.83;;
64682;SDS011;51107;47.652;19.016;2022-10-16T08:09:07;3.30;;;2.03;;
64682;SDS011;51107;47.652;19.016;2022-10-16T08:11:36;5.25;;;2.30;;
64682;SDS011;51107;47.652;19.016;2022-10-16T08:14:04;4.22;;;2.40;;
64682;SDS011;51107;47.652;19.016;2022-10-16T08:16:32;4.87;;;2.28;;
64682;SDS011;51107;47.652;19.016;2022-10-16T08:19:03;3.30;;;2.37;;
64682;SDS011;51107;47.652;19.016;2022-10-16T08:21:31;2.87;;;2.03;;
64682;SDS011;51107;47.652;19.016;2022-10-16T08:23:59;3.70;;;2.15;;
64682;SDS011;51107;47.652;19.016;2022-10-16T08:26:28;4.05;;;2.25;;
64682;SDS011;51107;47.652;19.016;2022-10-16T08:28:56;5.10;;;1.87;;
64682;SDS011;51107;47.652;19.016;2022-10-16T08:31:24;3.65;;;2.62;;
64682;SDS011;51107;47.652;19.016;2022-10-16T08:36:27;3.37;;;2.28;;
64682;SDS011;51107;47.652;19.016;2022-10-16T08:38:56;3.97;;;2.30;;
64682;SDS011;51107;47.652;19.016;2022-10-16T08:49:55;4.07;;;2.20;;
64682;SDS011;51107;47.652;19.016;2022-10-16T08:52:29;4.40;;;2.60;;
64682;SDS011;51107;47.652;19.016;2022-10-16T08:55:02;5.45;;;2.78;;
64682;SDS011;51107;47.652;19.016;2022-10-16T08:57:32;3.62;;;2.50;;
64682;SDS011;51107;47.652;19.016;2022-10-16T09:00:00;2.80;;;2.00;;
64682;SDS011;51107;47.652;19.016;2022-10-16T09:02:51;4.72;;;2.10;;
64682;SDS011;51107;47.652;19.016;2022-10-16T09:08:30;4.10;;;2.00;;
64682;SDS011;51107;47.652;19.016;2022-10-16T09:12:04;2.53;;;1.90;;
64682;SDS011;51107;47.652;19.016;2022-10-16T09:19:55;4.72;;;2.25;;
64682;SDS011;51107;47.652;19.016;2022-10-16T09:22:34;4.18;;;2.50;;
64682;SDS011;51107;47.652;19.016;2022-10-16T09:25:10;3.47;;;2.35;;
64682;SDS011;51107;47.652;19.016;2022-10-16T09:27:40;3.92;;;2.50;;
64682;SDS011;51107;47.652;19.016;2022-10-16T09:30:12;9.48;;;2.50;;
64682;SDS011;51107;47.652;19.016;2022-10-16T09:32:41;3.97;;;2.33;;
64682;SDS011;51107;47.652;19.016;2022-10-16T09:35:19;4.07;;;2.35;;
64682;SDS011;51107;47.652;19.016;2022-10-16T09:37:50;3.35;;;1.80;;
64682;SDS011;51107;47.652;19.016;2022-10-16T09:40:39;7.43;;;2.33;;
64682;SDS011;51107;47.652;19.016;2022-10-16T09:43:15;2.95;;;2.33;;
64682;SDS011;51107;47.652;19.016;2022-10-16T09:49:01;4.07;;;1.98;;
64682;SDS011;51107;47.652;19.016;2022-10-16T09:51:33;3.78;;;2.22;;
64682;SDS011;51107;47.652;19.016;2022-10-16T09:59:10;5.45;;;2.65;;
64682;SDS011;51107;47.652;19.016;2022-10-16T10:01:51;3.87;;;2.28;;
64682;SDS011;51107;47.652;19.016;2022-10-16T10:04:24;2.70;;;1.95;;
64682;SDS011;51107;47.652;19.016;2022-10-16T10:06:54;8.02;;;3.22;;
64682;SDS011;51107;47.652;19.016;2022-10-16T10:09:29;3.22;;;2.17;;
64682;SDS011;51107;47.652;19.016;2022-10-16T10:12:03;3.95;;;2.78;;
64682;SDS011;51107;47.652;19.016;2022-10-16T10:19:42;4.62;;;2.20;;
64682;SDS011;51107;47.652;19.016;2022-10-16T10:22:25;5.90;;;3.00;;
64682;SDS011;51107;47.652;19.016;2022-10-16T10:27:39;4.45;;;2.60;;
64682;SDS011;51107;47.652;19.016;2022-10-16T10:30:29;4.90;;;2.03;;
64682;SDS011;51107;47.652;19.016;2022-10-16T10:33:16;3.60;;;2.00;;
64682;SDS011;51107;47.652;19.016;2022-10-16T10:41:40;7.10;;;2.62;;
64682;SDS011;51107;47.652;19.016;2022-10-16T10:49:55;4.12;;;2.33;;
64682;SDS011;51107;47.652;19.016;2022-10-16T11:06:12;6.22;;;3.33;;
64682;SDS011;51107;47.652;19.016;2022-10-16T11:08:53;4.40;;;2.75;;
64682;SDS011;51107;47.652;19.016;2022-10-16T11:11:44;2.45;;;2.12;;
64682;SDS011;51107;47.652;19.016;2022-10-16T11:16:55;3.80;;;2.00;;
64682;SDS011;51107;47.652;19.016;2022-10-16T11:22:12;3.53;;;2.10;;
64682;SDS011;51107;47.652;19.016;2022-10-16T11:25:12;2.87;;;1.70;;
64682;SDS011;51107;47.652;19.016;2022-10-16T11:27:49;3.33;;;2.00;;
64682;SDS011;51107;47.652;19.016;2022-10-16T11:30:23;3.17;;;2.10;;
64682;SDS011;51107;47.652;19.016;2022-10-16T11:38:42;2.60;;;1.90;;
64682;SDS011;51107;47.652;19.016;2022-10-16T11:41:17;3.58;;;2.00;;
64682;SDS011;51107;47.652;19.016;2022-10-16T11:44:14;2.83;;;2.15;;
64682;SDS011;51107;47.652;19.016;2022-10-16T11:47:05;3.50;;;1.92;;
64682;SDS011;51107;47.652;19.016;2022-10-16T11:50:26;2.33;;;1.62;;
64682;SDS011;51107;47.652;19.016;2022-10-16T11:58:24;2.92;;;1.70;;
64682;SDS011;51107;47.652;19.016;2022-10-16T12:06:34;9.07;;;2.50;;
64682;SDS011;51107;47.652;19.016;2022-10-16T12:09:14;3.05;;;1.70;;
64682;SDS011;51107;47.652;19.016;2022-10-16T12:11:47;3.42;;;1.83;;
64682;SDS011;51107;47.652;19.016;2022-10-16T12:17:20;2.75;;;2.00;;
64682;SDS011;51107;47.652;19.016;2022-10-16T12:20:00;2.75;;;1.80;;
64682;SDS011;51107;47.652;19.016;2022-10-16T12:22:53;4.05;;;2.15;;
64682;SDS011;51107;47.652;19.016;2022-10-16T12:25:28;2.45;;;1.55;;
64682;SDS011;51107;47.652;19.016;2022-10-16T12:27:59;2.37;;;1.70;;
64682;SDS011;51107;47.652;19.016;2022-10-16T12:30:31;1.60;;;1.37;;
64682;SDS011;51107;47.652;19.016;2022-10-16T12:33:03;1.95;;;1.62;;
64682;SDS011;51107;47.652;19.016;2022-10-16T12:35:35;3.28;;;1.90;;
64682;SDS011;51107;47.652;19.016;2022-10-16T12:38:16;2.08;;;1.67;;
64682;SDS011;51107;47.652;19.016;2022-10-16T12:41:08;3.08;;;1.70;;
64682;SDS011;51107;47.652;19.016;2022-10-16T12:43:38;4.45;;;1.80;;
64682;SDS011;51107;47.652;19.016;2022-10-16T12:48:39;5.40;;;2.15;;
64682;SDS011;51107;47.652;19.016;2022-10-16T12:59:14;4.85;;;1.92;;
64682;SDS011;51107;47.652;19.016;2022-10-16T13:01:57;2.72;;;1.42;;
64682;SDS011;51107;47.652;19.016;2022-10-16T13:04:33;2.97;;;1.75;;
64682;SDS011;51107;47.652;19.016;2022-10-16T13:10:40;3.15;;;1.70;;
64682;SDS011;51107;47.652;19.016;2022-10-16T13:16:33;5.32;;;2.05;;
64682;SDS011;51107;47.652;19.016;2022-10-16T13:21:54;3.03;;;1.92;;
64682;SDS011;51107;47.652;19.016;2022-10-16T13:30:23;3.67;;;2.03;;
64682;SDS011;51107;47.652;19.016;2022-10-16T13:33:02;2.08;;;1.35;;
64682;SDS011;51107;47.652;19.016;2022-10-16T13:35:35;2.65;;;1.50;;
64682;SDS011;51107;47.652;19.016;2022-10-16T13:38:14;1.80;;;1.37;;
64682;SDS011;51107;47.652;19.016;2022-10-16T13:40:48;3.10;;;1.90;;
64682;SDS011;51107;47.652;19.016;2022-10-16T13:43:49;3.53;;;1.58;;
64682;SDS011;51107;47.652;19.016;2022-10-16T13:46:20;3.17;;;1.60;;
64682;SDS011;51107;47.652;19.016;2022-10-16T13:49:00;2.35;;;1.62;;
64682;SDS011;51107;47.652;19.016;2022-10-16T13:51:30;6.12;;;1.75;;
64682;SDS011;51107;47.652;19.016;2022-10-16T13:54:00;2.37;;;1.60;;
64682;SDS011;51107;47.652;19.016;2022-10-16T13:56:29;3.30;;;1.52;;
64682;SDS011;51107;47.652;19.016;2022-10-16T13:59:00;2.30;;;1.98;;
64682;SDS011;51107;47.652;19.016;2022-10-16T14:01:49;2.17;;;1.37;;
64682;SDS011;51107;47.652;19.016;2022-10-16T14:04:21;3.83;;;2.40;;
64682;SDS011;51107;47.652;19.016;2022-10-16T14:06:51;2.15;;;1.67;;
64682;SDS011;51107;47.652;19.016;2022-10-16T14:09:29;2.92;;;1.73;;
64682;SDS011;51107;47.652;19.016;2022-10-16T14:12:03;1.17;;;1.08;;
64682;SDS011;51107;47.652;19.016;2022-10-16T14:14:42;2.78;;;1.55;;
64682;SDS011;51107;47.652;19.016;2022-10-16T14:19:46;4.30;;;2.25;;
64682;SDS011;51107;47.652;19.016;2022-10-16T14:25:18;2.83;;;1.77;;
64682;SDS011;51107;47.652;19.016;2022-10-16T14:28:35;1.87;;;1.42;;
64682;SDS011;51107;47.652;19.016;2022-10-16T14:30:50;3.05;;;1.73;;
64682;SDS011;51107;47.652;19.016;2022-10-16T14:38:38;3.20;;;1.50;;
64682;SDS011;51107;47.652;19.016;2022-10-16T14:41:08;1.92;;;1.37;;
64682;SDS011;51107;47.652;19.016;2022-10-16T14:43:37;2.80;;;1.67;;
64682;SDS011;51107;47.652;19.016;2022-10-16T14:46:17;1.83;;;1.42;;
64682;SDS011;51107;47.652;19.016;2022-10-16T14:48:54;3.83;;;1.40;;
64682;SDS011;51107;47.652;19.016;2022-10-16T14:51:29;2.55;;;1.77;;
64682;SDS011;51107;47.652;19.016;2022-10-16T14:53:58;1.67;;;1.30;;
64682;SDS011;51107;47.652;19.016;2022-10-16T14:56:31;5.10;;;1.52;;
64682;SDS011;51107;47.652;19.016;2022-10-16T14:59:03;2.83;;;1.50;;
64682;SDS011;51107;47.652;19.016;2022-10-16T15:01:32;2.25;;;1.40;;
64682;SDS011;51107;47.652;19.016;2022-10-16T15:04:00;3.75;;;1.25;;
64682;SDS011;51107;47.652;19.016;2022-10-16T15:06:28;2.22;;;1.40;;
64682;SDS011;51107;47.652;19.016;2022-10-16T15:08:57;1.98;;;1.52;;
64682;SDS011;51107;47.652;19.016;2022-10-16T15:11:25;2.62;;;1.67;;
64682;SDS011;51107;47.652;19.016;2022-10-16T15:13:53;2.30;;;1.70;;
64682;SDS011;51107;47.652;19.016;2022-10-16T15:16:22;6.22;;;2.25;;
64682;SDS011;51107;47.652;19.016;2022-10-16T15:18:50;3.20;;;2.12;;
64682;SDS011;51107;47.652;19.016;2022-10-16T15:21:29;5.05;;;2.55;;
64682;SDS011;51107;47.652;19.016;2022-10-16T15:23:59;3.60;;;2.53;;
64682;SDS011;51107;47.652;19.016;2022-10-16T15:26:29;4.60;;;2.45;;
64682;SDS011;51107;47.652;19.016;2022-10-16T15:28:58;3.12;;;2.10;;
64682;SDS011;51107;47.652;19.016;2022-10-16T15:31:26;6.10;;;2.42;;
64682;SDS011;51107;47.652;19.016;2022-10-16T15:33:54;5.85;;;2.42;;
64682;SDS011;51107;47.652;19.016;2022-10-16T15:36:29;6.20;;;2.67;;
64682;SDS011;51107;47.652;19.016;2022-10-16T15:39:12;3.83;;;2.37;;
64682;SDS011;51107;47.652;19.016;2022-10-16T15:41:42;4.40;;;2.50;;
64682;SDS011;51107;47.652;19.016;2022-10-16T15:44:11;8.20;;;5.47;;
64682;SDS011;51107;47.652;19.016;2022-10-16T15:46:39;7.55;;;3.75;;
64682;SDS011;51107;47.652;19.016;2022-10-16T15:49:07;4.93;;;2.58;;
64682;SDS011;51107;47.652;19.016;2022-10-16T15:51:37;5.55;;;2.90;;
64682;SDS011;51107;47.652;19.016;2022-10-16T15:54:07;4.40;;;2.35;;
64682;SDS011;51107;47.652;19.016;2022-10-16T15:56:36;3.08;;;1.90;;
64682;SDS011;51107;47.652;19.016;2022-10-16T15:59:05;3.33;;;1.98;;
64682;SDS011;51107;47.652;19.016;2022-10-16T16:01:35;6.62;;;1.95;;
64682;SDS011;51107;47.652;19.016;2022-10-16T16:04:04;2.22;;;1.77;;
64682;SDS011;51107;47.652;19.016;2022-10-16T16:06:46;2.10;;;1.50;;
64682;SDS011;51107;47.652;19.016;2022-10-16T16:09:15;2.37;;;1.67;;
64682;SDS011;51107;47.652;19.016;2022-10-16T16:11:43;3.35;;;1.95;;
64682;SDS011;51107;47.652;19.016;2022-10-16T16:14:12;3.92;;;2.08;;
64682;SDS011;51107;47.652;19.016;2022-10-16T16:16:41;3.53;;;1.87;;
64682;SDS011;51107;47.652;19.016;2022-10-16T16:19:10;2.42;;;1.90;;
64682;SDS011;51107;47.652;19.016;2022-10-16T16:21:38;2.33;;;1.98;;
64682;SDS011;51107;47.652;19.016;2022-10-16T16:24:07;3.00;;;2.25;;
64682;SDS011;51107;47.652;19.016;2022-10-16T16:26:36;3.50;;;1.98;;
64682;SDS011;51107;47.652;19.016;2022-10-16T16:29:08;2.28;;;1.62;;
64682;SDS011;51107;47.652;19.016;2022-10-16T16:31:40;6.12;;;2.08;;
64682;SDS011;51107;47.652;19.016;2022-10-16T16:34:08;4.07;;;1.83;;
64682;SDS011;51107;47.652;19.016;2022-10-16T16:36:37;3.95;;;2.25;;
64682;SDS011;51107;47.652;19.016;2022-10-16T16:39:06;4.05;;;2.22;;
64682;SDS011;51107;47.652;19.016;2022-10-16T16:41:35;4.45;;;2.40;;
64682;SDS011;51107;47.652;19.016;2022-10-16T16:44:04;4.62;;;2.33;;
64682;SDS011;51107;47.652;19.016;2022-10-16T16:46:35;5.28;;;2.47;;
64682;SDS011;51107;47.652;19.016;2022-10-16T16:49:03;5.65;;;2.87;;
64682;SDS011;51107;47.652;19.016;2022-10-16T16:51:33;6.55;;;3.87;;
64682;SDS011;51107;47.652;19.016;2022-10-16T16:54:07;10.73;;;6.40;;
64682;SDS011;51107;47.652;19.016;2022-10-16T16:56:38;14.00;;;6.68;;
64682;SDS011;51107;47.652;19.016;2022-10-16T16:59:10;12.00;;;6.03;;
64682;SDS011;51107;47.652;19.016;2022-10-16T17:01:41;14.73;;;7.60;;
64682;SDS011;51107;47.652;19.016;2022-10-16T17:04:10;7.78;;;5.00;;
64682;SDS011;51107;47.652;19.016;2022-10-16T17:06:39;11.60;;;5.30;;
64682;SDS011;51107;47.652;19.016;2022-10-16T17:09:08;8.68;;;5.60;;
64682;SDS011;51107;47.652;19.016;2022-10-16T17:11:37;10.68;;;5.55;;
64682;SDS011;51107;47.652;19.016;2022-10-16T17:14:09;10.50;;;5.07;;
64682;SDS011;51107;47.652;19.016;2022-10-16T17:16:38;14.23;;;6.65;;
64682;SDS011;51107;47.652;19.016;2022-10-16T17:19:07;10.25;;;5.32;;
64682;SDS011;51107;47.652;19.016;2022-10-16T17:21:39;11.95;;;6.10;;
64682;SDS011;51107;47.652;19.016;2022-10-16T17:24:12;10.98;;;5.95;;
64682;SDS011;51107;47.652;19.016;2022-10-16T17:26:41;8.52;;;5.03;;